Aurora, Colorado
Current Conditions -  °F | °C
As of 11:58 PM on Thursday 30 Oct 2014 (Local Time) from KBKF Reporting Station
Clear Clear  
Wind Chill: 38°   Ceiling: Unl
Heat Index: 44°   Visibility: 10mi
Dew Point: 26°   Wind: 12mph
Humidity: 50%   Direction: 140°SE
Pressure: 30.4"   Gusts: NA
Location:  39.69°N, 104.86°W
Report Text: KBKF 310558Z 14010KT 10SM CLR 07/M03 A3040 RMK AO2A SLP263 T00661033 10106 20052 58001
Loading
Personal Weather Stations






























Interactive Weather Map
Tropical Storm Tracking
New forecast layout! Learn more

10-Day Weather Forecast

Advertisements
Track Severe Weather on mobile